Time;durP1;ratioP1;P1;durP2;ratioP2;P2;SDS_P1;SDS_P2;PMS_P1;PMS_P2;Temp;Humidity;BMP_temperature;BMP_pressure;BME280_temperature;BME280_humidity;BME280_pressure;Samples;Min_cycle;Max_cycle;Signal;HPM_P1;HPM_P2
2021/01/15 00:00:15;;;;;;;30.02;28.05;;;1.70;78.90;;;;;;5012640;28;20200;-77
2021/01/15 00:02:41;;;;;;;29.63;27.63;;;1.70;79.20;;;;;;5013097;28;20205;-77
2021/01/15 00:05:08;;;;;;;30.17;28.15;;;1.80;78.90;;;;;;5022871;28;20209;-77
2021/01/15 00:07:34;;;;;;;30.35;27.95;;;1.80;78.60;;;;;;5025033;28;20225;-77
2021/01/15 00:10:01;;;;;;;30.50;27.85;;;1.80;79.00;;;;;;5016361;28;20194;-77
2021/01/15 00:12:27;;;;;;;31.33;29.20;;;1.90;77.80;;;;;;5016266;28;20194;-77
2021/01/15 00:14:54;;;;;;;29.95;27.83;;;1.70;78.10;;;;;;5017890;28;20241;-77
2021/01/15 00:17:21;;;;;;;29.75;27.52;;;1.80;78.20;;;;;;5016618;28;20233;-77
2021/01/15 00:19:49;;;;;;;29.25;27.25;;;1.90;77.80;;;;;;5016656;28;20267;-77
2021/01/15 00:22:15;;;;;;;29.50;27.48;;;1.70;78.50;;;;;;5016585;28;20202;-77
2021/01/15 00:24:42;;;;;;;30.38;27.55;;;1.60;78.90;;;;;;5018821;28;20210;-77
2021/01/15 00:27:08;;;;;;;30.05;28.02;;;1.50;79.20;;;;;;5035709;28;20217;-77
2021/01/15 00:29:34;;;;;;;29.77;27.55;;;1.60;79.10;;;;;;5036334;28;20197;-77
2021/01/15 00:32:01;;;;;;;28.67;26.85;;;1.70;79.20;;;;;;5036354;28;20200;-77
2021/01/15 00:34:28;;;;;;;27.88;26.08;;;1.60;78.80;;;;;;5035300;28;20221;-77
2021/01/15 00:36:54;;;;;;;28.90;26.85;;;1.70;79.20;;;;;;5031094;28;20246;-77
2021/01/15 00:39:21;;;;;;;29.60;27.58;;;1.60;79.10;;;;;;5035622;28;20299;-77
2021/01/15 00:41:47;;;;;;;29.33;26.90;;;1.70;78.80;;;;;;5035639;28;20197;-77
2021/01/15 00:44:13;;;;;;;29.10;27.10;;;1.60;79.10;;;;;;5035741;28;20730;-77
2021/01/15 00:46:47;;;;;;;29.25;27.10;;;1.50;79.60;;;;;;5022356;28;20283;-77
2021/01/15 00:49:15;;;;;;;30.42;28.02;;;1.60;78.50;;;;;;5015883;28;20226;-77
2021/01/15 00:51:48;;;;;;;30.33;28.02;;;1.50;78.10;;;;;;5015824;28;20208;-77
2021/01/15 00:54:15;;;;;;;29.13;26.90;;;1.50;78.00;;;;;;5015585;28;20227;-77
2021/01/15 00:56:41;;;;;;;28.10;25.95;;;1.50;78.00;;;;;;5015333;28;20214;-77
2021/01/15 00:59:08;;;;;;;27.45;25.75;;;1.50;78.10;;;;;;5030364;28;20528;-77
2021/01/15 01:01:37;;;;;;;28.23;26.33;;;1.60;77.70;;;;;;5035643;28;20207;-77
2021/01/15 01:04:04;;;;;;;28.50;26.42;;;1.60;77.50;;;;;;5035500;28;20211;-77
2021/01/15 01:06:31;;;;;;;27.75;25.90;;;1.60;77.00;;;;;;5035064;28;20213;-77
2021/01/15 01:09:02;;;;;;;27.00;25.00;;;1.60;76.60;;;;;;5021682;28;20193;-77
2021/01/15 01:11:30;;;;;;;26.98;25.05;;;1.50;77.20;;;;;;5015587;28;20234;-77
2021/01/15 01:13:57;;;;;;;26.17;24.52;;;1.40;77.60;;;;;;5015349;28;20220;-77
2021/01/15 01:16:24;;;;;;;27.13;25.23;;;1.50;77.30;;;;;;5014686;28;20323;-77
2021/01/15 01:18:51;;;;;;;26.27;24.70;;;1.60;76.80;;;;;;5027206;28;20251;-77
2021/01/15 01:21:18;;;;;;;25.85;24.23;;;1.50;77.00;;;;;;5034893;28;20608;-77
2021/01/15 01:23:44;;;;;;;28.85;27.05;;;1.50;77.20;;;;;;5034936;28;20201;-77
2021/01/15 01:26:12;;;;;;;26.05;24.45;;;1.40;77.50;;;;;;5034901;28;20211;-77
2021/01/15 01:28:42;;;;;;;26.00;24.30;;;1.50;77.00;;;;;;5024317;28;20197;-77
2021/01/15 01:31:08;;;;;;;26.42;24.73;;;1.50;76.70;;;;;;5015101;28;20198;-77
2021/01/15 01:33:35;;;;;;;25.77;24.10;;;1.50;76.60;;;;;;5015177;28;20194;-77
2021/01/15 01:36:01;;;;;;;26.27;24.63;;;1.40;76.80;;;;;;5014648;28;20264;-77
2021/01/15 01:38:27;;;;;;;26.45;24.70;;;1.50;76.80;;;;;;5023219;28;20676;-77
2021/01/15 01:40:54;;;;;;;26.08;23.75;;;1.50;76.50;;;;;;5034712;28;20292;-77
2021/01/15 01:43:21;;;;;;;48.85;26.63;;;1.50;76.40;;;;;;5034753;28;20197;-77
2021/01/15 01:45:48;;;;;;;25.10;23.50;;;1.40;76.20;;;;;;5034533;28;20203;-77
2021/01/15 01:48:15;;;;;;;27.58;25.80;;;1.40;76.50;;;;;;5027514;28;20214;-77
2021/01/15 01:50:42;;;;;;;26.45;24.70;;;1.40;75.90;;;;;;5014535;28;20194;-77
2021/01/15 01:53:12;;;;;;;25.70;24.20;;;1.40;75.30;;;;;;5014624;28;20202;-77
2021/01/15 01:55:39;;;;;;;24.50;23.10;;;1.30;76.10;;;;;;5015428;28;20268;-77
2021/01/15 01:58:06;;;;;;;25.70;24.02;;;1.40;75.80;;;;;;5014145;28;20218;-77
2021/01/15 02:00:38;;;;;;;26.63;25.02;;;1.40;75.70;;;;;;5014476;28;20198;-77
2021/01/15 02:03:05;;;;;;;24.90;23.35;;;1.40;76.00;;;;;;5016550;28;20202;-77
2021/01/15 02:05:31;;;;;;;25.70;24.10;;;1.40;76.10;;;;;;5034319;28;20193;-77
2021/01/15 02:07:58;;;;;;;25.85;23.90;;;1.30;76.30;;;;;;5034284;28;20304;-77
2021/01/15 02:10:33;;;;;;;24.70;23.08;;;1.20;76.90;;;;;;5034056;28;20209;-77
2021/01/15 02:13:08;;;;;;;25.15;23.60;;;1.20;76.70;;;;;;5032486;28;20203;-77
2021/01/15 02:15:41;;;;;;;25.45;23.92;;;1.20;76.60;;;;;;5014029;28;20256;-77
2021/01/15 02:18:10;;;;;;;25.42;23.90;;;1.10;76.80;;;;;;5014237;28;20224;-77
2021/01/15 02:21:14;;;;;;;25.10;23.65;;;1.00;76.90;;;;;;5030218;28;20206;-77
2021/01/15 02:23:42;;;;;;;25.27;23.63;;;1.00;77.00;;;;;;5033240;28;20203;-77
2021/01/15 02:26:49;;;;;;;26.80;24.90;;;1.00;77.10;;;;;;5032734;28;20659;-77
2021/01/15 02:29:17;;;;;;;23.63;22.33;;;1.00;77.00;;;;;;5011987;28;20193;-77
2021/01/15 02:32:27;;;;;;;25.60;23.95;;;0.90;77.20;;;;;;5031969;28;20216;-77
2021/01/15 02:35:14;;;;;;;26.05;24.45;;;1.00;77.20;;;;;;5033597;28;20274;-77
2021/01/15 02:37:51;;;;;;;24.50;23.10;;;1.00;77.10;;;;;;5033210;28;20224;-77
2021/01/15 02:40:23;;;;;;;24.55;22.95;;;1.00;76.80;;;;;;5033881;28;20200;-77
2021/01/15 02:42:51;;;;;;;24.70;23.10;;;0.90;77.60;;;;;;5016776;28;20198;-77
2021/01/15 02:45:18;;;;;;;24.80;23.40;;;0.80;77.40;;;;;;5013821;28;20193;-76
2021/01/15 02:47:48;;;;;;;26.02;23.67;;;0.90;76.40;;;;;;5013585;28;20307;-77
2021/01/15 02:50:16;;;;;;;24.55;23.05;;;0.90;76.20;;;;;;5014012;28;20254;-77
2021/01/15 02:52:43;;;;;;;24.35;22.88;;;0.80;76.10;;;;;;5013957;28;20193;-77
2021/01/15 02:55:11;;;;;;;25.23;23.70;;;0.90;76.20;;;;;;5017302;28;20220;-77
2021/01/15 02:57:38;;;;;;;25.48;23.65;;;0.90;76.00;;;;;;5013083;28;20223;-76
2021/01/15 03:00:07;;;;;;;24.48;23.10;;;0.90;76.40;;;;;;5013487;28;20284;-77
2021/01/15 03:02:46;;;;;;;24.70;23.00;;;0.80;77.20;;;;;;5027229;28;20250;-77
2021/01/15 03:05:19;;;;;;;23.88;22.58;;;0.80;77.20;;;;;;5032525;28;20185;-78
2021/01/15 03:07:46;;;;;;;25.58;23.98;;;0.80;77.70;;;;;;5030842;28;20220;-77
2021/01/15 03:10:13;;;;;;;25.08;23.67;;;0.70;78.30;;;;;;5032987;28;20202;-77
2021/01/15 03:12:42;;;;;;;26.25;24.50;;;0.80;77.10;;;;;;5033141;28;20200;-77
2021/01/15 03:15:11;;;;;;;25.17;23.58;;;0.70;77.00;;;;;;5032871;28;20218;-77
2021/01/15 03:17:42;;;;;;;25.25;23.77;;;0.60;77.10;;;;;;5017552;28;20224;-77
2021/01/15 03:20:10;;;;;;;25.13;23.35;;;0.70;76.80;;;;;;4993571;28;20205;-77
2021/01/15 03:22:39;;;;;;;27.88;26.02;;;0.70;76.40;;;;;;5010295;28;20220;-77
2021/01/15 03:25:07;;;;;;;25.70;24.15;;;0.70;76.40;;;;;;5032783;28;20198;-77
2021/01/15 03:27:43;;;;;;;25.30;23.88;;;0.60;76.80;;;;;;5022008;28;20220;-77
2021/01/15 03:30:11;;;;;;;25.83;24.30;;;0.60;77.30;;;;;;5013138;28;20208;-77
2021/01/15 03:32:38;;;;;;;25.15;23.55;;;0.50;77.00;;;;;;5030348;28;20221;-77
2021/01/15 03:35:06;;;;;;;25.50;23.80;;;0.60;76.60;;;;;;5032614;28;20715;-77
2021/01/15 03:37:32;;;;;;;24.83;23.23;;;0.50;77.10;;;;;;5022140;28;20217;-77
2021/01/15 03:40:00;;;;;;;25.30;23.75;;;0.40;77.20;;;;;;5013010;28;20199;-77
2021/01/15 03:42:26;;;;;;;25.25;23.65;;;0.50;77.00;;;;;;5012862;28;20259;-76
2021/01/15 03:44:52;;;;;;;26.15;24.40;;;0.50;76.50;;;;;;5012839;28;20677;-77
2021/01/15 03:47:19;;;;;;;26.00;24.30;;;0.50;77.40;;;;;;5020207;28;20555;-77
2021/01/15 03:49:45;;;;;;;25.33;23.80;;;0.50;77.30;;;;;;5032306;28;20201;-77
2021/01/15 03:52:12;;;;;;;25.75;24.15;;;0.50;76.50;;;;;;5033561;28;20205;-77
2021/01/15 03:54:38;;;;;;;26.45;24.95;;;0.50;76.90;;;;;;5032456;28;20220;-77
2021/01/15 03:57:06;;;;;;;26.23;24.63;;;0.40;77.10;;;;;;5026116;28;20212;-77
2021/01/15 03:59:32;;;;;;;27.20;25.50;;;0.30;76.90;;;;;;5012619;28;20204;-77
2021/01/15 04:01:58;;;;;;;26.02;24.23;;;0.20;76.90;;;;;;5021899;28;20193;-77
2021/01/15 04:04:25;;;;;;;26.42;24.88;;;0.30;78.10;;;;;;5038506;28;20202;-77
2021/01/15 04:06:51;;;;;;;28.70;26.92;;;0.40;77.20;;;;;;5032461;28;20235;-77
2021/01/15 04:09:17;;;;;;;28.02;26.35;;;0.50;76.00;;;;;;5032410;28;20294;-77
2021/01/15 04:11:44;;;;;;;27.17;25.23;;;0.40;76.30;;;;;;5029376;28;20204;-77
2021/01/15 04:14:11;;;;;;;26.52;24.88;;;0.40;76.00;;;;;;5018816;28;20303;-77
2021/01/15 04:16:37;;;;;;;26.58;24.83;;;0.40;76.60;;;;;;5013159;28;20220;-77
2021/01/15 04:19:04;;;;;;;26.80;25.23;;;0.40;77.20;;;;;;5013169;28;20298;-77
2021/01/15 04:21:30;;;;;;;28.10;26.17;;;0.30;78.10;;;;;;5012987;28;20200;-77
2021/01/15 04:23:56;;;;;;;26.80;24.90;;;0.40;76.80;;;;;;5032314;28;20199;-76
2021/01/15 04:26:22;;;;;;;26.40;24.80;;;0.40;76.40;;;;;;5032072;28;20246;-77
2021/01/15 04:28:50;;;;;;;44.28;27.08;;;0.20;77.70;;;;;;5032130;28;20667;-77
2021/01/15 04:31:18;;;;;;;35.60;26.10;;;0.10;80.70;;;;;;5032185;28;20275;-77
2021/01/15 04:33:44;;;;;;;27.83;26.02;;;0.00;82.40;;;;;;5013211;28;20216;-77
2021/01/15 04:36:11;;;;;;;27.30;25.48;;;0.00;81.50;;;;;;5012166;28;20224;-77
2021/01/15 04:38:41;;;;;;;27.13;25.55;;;0.00;80.10;;;;;;5012513;28;20254;-77
2021/01/15 04:41:08;;;;;;;26.02;24.30;;;0.00;79.60;;;;;;5012557;28;20202;-77
2021/01/15 04:43:36;;;;;;;25.98;24.38;;;0.00;78.50;;;;;;5029295;28;20202;-77
2021/01/15 04:46:04;;;;;;;28.60;26.90;;;-0.10;78.30;;;;;;5032042;28;20195;-77
2021/01/15 04:48:33;;;;;;;28.02;26.25;;;-0.20;78.80;;;;;;5032179;28;20199;-77
2021/01/15 04:51:00;;;;;;;25.00;23.50;;;-0.20;79.60;;;;;;5034831;28;20208;-77
2021/01/15 04:53:29;;;;;;;26.85;24.55;;;-0.20;79.90;;;;;;5019684;28;20220;-77
2021/01/15 04:55:58;;;;;;;26.13;24.15;;;-0.10;80.00;;;;;;5015410;28;20242;-77
2021/01/15 04:58:25;;;;;;;28.10;26.38;;;-0.10;80.00;;;;;;5015340;28;20262;-77
2021/01/15 05:00:57;;;;;;;28.33;26.52;;;-0.10;80.00;;;;;;5015801;28;20348;-77
2021/01/15 05:03:24;;;;;;;27.20;25.20;;;-0.20;80.40;;;;;;5030792;28;20194;-77
2021/01/15 05:05:59;;;;;;;26.52;24.92;;;-0.10;80.50;;;;;;5035141;28;20196;-77
2021/01/15 05:08:27;;;;;;;27.70;25.50;;;-0.20;81.30;;;;;;5021995;28;20199;-77
2021/01/15 05:10:54;;;;;;;28.40;26.35;;;-0.20;81.40;;;;;;5016875;28;20205;-77
2021/01/15 05:13:21;;;;;;;27.13;25.27;;;-0.20;82.10;;;;;;5035424;28;20686;-77
2021/01/15 05:15:48;;;;;;;26.10;24.67;;;-0.30;81.70;;;;;;5034544;28;20426;-77
2021/01/15 05:18:16;;;;;;;27.52;25.83;;;-0.30;81.20;;;;;;5035169;28;20223;-77
2021/01/15 05:20:42;;;;;;;27.52;25.58;;;-0.30;81.10;;;;;;5025210;28;20201;-77
2021/01/15 05:23:09;;;;;;;26.15;24.55;;;-0.30;81.40;;;;;;5015264;28;20200;-77
2021/01/15 05:25:41;;;;;;;26.30;24.40;;;-0.40;81.60;;;;;;5015531;28;20647;-77
2021/01/15 05:28:08;;;;;;;27.55;25.60;;;-0.40;81.70;;;;;;5015331;28;20223;-77
2021/01/15 05:30:34;;;;;;;26.70;24.90;;;-0.40;82.20;;;;;;5015232;28;20204;-77
2021/01/15 05:33:01;;;;;;;29.38;26.77;;;-0.40;83.10;;;;;;5015152;28;20199;-77
2021/01/15 05:35:43;;;;;;;27.23;25.38;;;-0.50;82.40;;;;;;5023714;28;20219;-77
2021/01/15 05:38:12;;;;;;;26.45;24.73;;;-0.40;81.90;;;;;;5034892;28;20723;-77
2021/01/15 05:40:41;;;;;;;26.20;24.60;;;-0.50;81.30;;;;;;5034897;28;20203;-77
2021/01/15 05:43:17;;;;;;;27.15;25.38;;;-0.40;81.10;;;;;;5034681;28;20271;-77
2021/01/15 05:45:47;;;;;;;28.35;26.45;;;-0.40;80.50;;;;;;5023145;28;20194;-77
2021/01/15 05:48:13;;;;;;;27.33;25.50;;;-0.40;80.30;;;;;;5014830;28;20223;-77
2021/01/15 05:50:40;;;;;;;28.48;26.50;;;-0.40;80.60;;;;;;5015037;28;20203;-77
2021/01/15 05:53:07;;;;;;;27.55;25.73;;;-0.40;80.70;;;;;;5014693;28;20567;-77
2021/01/15 05:55:34;;;;;;;28.25;26.60;;;-0.30;80.50;;;;;;5023843;28;20219;-77
2021/01/15 05:58:10;;;;;;;27.40;25.60;;;-0.40;80.80;;;;;;5034044;28;20636;-77
2021/01/15 06:00:38;;;;;;;28.65;27.02;;;-0.50;81.20;;;;;;5034012;28;20617;-77
2021/01/15 06:03:09;;;;;;;28.13;26.17;;;-0.60;81.80;;;;;;5034107;28;20248;-77
2021/01/15 06:05:36;;;;;;;27.67;25.67;;;-0.50;81.90;;;;;;5024449;28;20256;-77
2021/01/15 06:08:03;;;;;;;27.00;25.30;;;-0.40;81.10;;;;;;5014383;28;20210;-77
2021/01/15 06:10:43;;;;;;;27.85;26.15;;;-0.30;80.70;;;;;;5019430;28;20255;-77
2021/01/15 06:13:09;;;;;;;27.52;25.77;;;-0.50;81.40;;;;;;5034280;28;20200;-77
2021/01/15 06:15:46;;;;;;;27.65;25.77;;;-0.60;82.00;;;;;;5026601;28;20226;-77
2021/01/15 06:18:16;;;;;;;26.90;25.10;;;-0.70;82.30;;;;;;5014857;28;20260;-77
2021/01/15 06:20:44;;;;;;;27.33;25.52;;;-0.60;83.10;;;;;;5033257;28;20194;-77
2021/01/15 06:23:13;;;;;;;27.38;25.67;;;-0.50;82.30;;;;;;5034146;28;20198;-77
2021/01/15 06:25:57;;;;;;;27.17;25.48;;;-0.50;82.40;;;;;;5033638;28;20206;-77
2021/01/15 06:28:32;;;;;;;28.35;26.50;;;-0.50;82.50;;;;;;5034847;28;20671;-77
2021/01/15 06:31:01;;;;;;;27.85;26.05;;;-0.50;81.70;;;;;;5016630;28;20216;-77
2021/01/15 06:33:28;;;;;;;27.42;25.65;;;-0.50;81.10;;;;;;5015458;28;20621;-77
2021/01/15 06:35:54;;;;;;;26.88;25.27;;;-0.50;81.10;;;;;;5024472;28;20575;-77
2021/01/15 06:38:26;;;;;;;27.00;25.17;;;-0.60;81.10;;;;;;5033935;28;20201;-78
2021/01/15 06:40:53;;;;;;;29.35;26.42;;;-0.70;81.70;;;;;;5027461;28;20203;-77
2021/01/15 06:43:25;;;;;;;28.27;26.48;;;-0.70;81.60;;;;;;5013919;28;20198;-77
2021/01/15 06:45:54;;;;;;;27.65;25.75;;;-0.70;81.80;;;;;;5013466;28;20194;-77
2021/01/15 06:48:22;;;;;;;27.77;25.75;;;-0.60;81.40;;;;;;5013734;28;20221;-77
2021/01/15 06:50:50;;;;;;;28.17;26.13;;;-0.60;81.90;;;;;;5018692;28;20252;-77
2021/01/15 06:53:22;;;;;;;28.40;26.23;;;-0.80;82.80;;;;;;5013803;28;20202;-77
2021/01/15 06:55:50;;;;;;;28.40;26.50;;;-0.80;82.70;;;;;;5016390;28;20224;-77
2021/01/15 06:58:25;;;;;;;28.10;26.27;;;-0.80;83.40;;;;;;5033070;28;20571;-77
2021/01/15 07:01:17;;;;;;;29.45;27.63;;;-0.80;83.40;;;;;;5021185;28;20201;-77
2021/01/15 07:04:22;;;;;;;29.25;27.30;;;-0.90;82.50;;;;;;5015815;28;20604;-77
2021/01/15 07:07:04;;;;;;;28.90;26.80;;;-0.90;81.90;;;;;;5013304;28;20226;-78
2021/01/15 07:09:31;;;;;;;27.25;25.45;;;-0.90;81.80;;;;;;5013433;28;20257;-78
2021/01/15 07:12:04;;;;;;;28.63;26.63;;;-0.80;81.50;;;;;;5014075;28;20198;-77
2021/01/15 07:14:47;;;;;;;27.80;25.80;;;-0.90;81.10;;;;;;5013208;28;20198;-77
2021/01/15 07:17:17;;;;;;;30.08;27.98;;;-0.90;80.60;;;;;;5013080;28;20225;-77
2021/01/15 07:19:45;;;;;;;29.15;27.08;;;-0.80;80.50;;;;;;5013847;28;20233;-77
2021/01/15 07:22:13;;;;;;;29.20;27.10;;;-0.80;81.80;;;;;;5013477;28;20580;-77
2021/01/15 07:24:41;;;;;;;28.38;26.67;;;-0.80;81.80;;;;;;5027124;28;20181;-77
2021/01/15 07:27:09;;;;;;;30.50;28.30;;;-0.80;81.20;;;;;;5028272;28;20205;-77
2021/01/15 07:29:41;;;;;;;29.95;28.02;;;-0.80;80.40;;;;;;5013147;28;20198;-77
2021/01/15 07:32:10;;;;;;;27.80;25.90;;;-0.90;80.10;;;;;;5013059;28;20203;-77
2021/01/15 07:34:44;;;;;;;29.20;27.25;;;-0.90;80.40;;;;;;5021930;28;20188;-77
2021/01/15 07:37:22;;;;;;;27.75;25.58;;;-0.90;81.70;;;;;;5032326;28;20225;-77
2021/01/15 07:40:14;;;;;;;29.83;27.88;;;-0.80;80.90;;;;;;5033018;28;20208;-77
2021/01/15 07:42:42;;;;;;;28.95;26.85;;;-0.80;81.60;;;;;;5032698;28;20203;-77
2021/01/15 07:45:51;;;;;;;31.02;28.50;;;-0.80;81.60;;;;;;5032815;28;20195;-77
2021/01/15 07:48:17;;;;;;;28.92;26.75;;;-0.70;80.70;;;;;;4993440;28;20225;-77
2021/01/15 07:50:45;;;;;;;30.15;28.15;;;-0.70;84.90;;;;;;4993376;28;20208;-77
2021/01/15 07:53:22;;;;;;;31.83;29.73;;;-0.60;83.10;;;;;;4996463;28;20200;-77
2021/01/15 07:55:50;;;;;;;31.30;28.98;;;-0.60;82.40;;;;;;4995742;28;20314;-77
2021/01/15 07:58:19;;;;;;;30.10;28.10;;;-0.50;83.00;;;;;;5007198;28;20209;-77
2021/01/15 08:00:47;;;;;;;31.52;29.35;;;-0.50;84.20;;;;;;5032575;28;20195;-77
2021/01/15 08:03:14;;;;;;;31.85;29.70;;;-0.50;83.00;;;;;;5024959;28;20192;-77
2021/01/15 08:05:43;;;;;;;32.35;29.58;;;-0.40;82.70;;;;;;5012755;28;20244;-77
2021/01/15 08:08:12;;;;;;;31.10;28.90;;;-0.30;81.80;;;;;;5021368;28;20646;-77
2021/01/15 08:10:45;;;;;;;31.48;29.08;;;-0.20;81.00;;;;;;5032478;28;20728;-77
2021/01/15 08:13:29;;;;;;;32.88;29.98;;;-0.20;83.10;;;;;;5023188;28;20257;-77
2021/01/15 08:15:57;;;;;;;31.40;29.20;;;-0.10;84.70;;;;;;5028195;28;20302;-77
2021/01/15 08:18:25;;;;;;;29.23;27.13;;;0.00;85.30;;;;;;5032327;28;20203;-77
2021/01/15 08:20:53;;;;;;;32.60;30.13;;;0.00;83.50;;;;;;5032225;28;20675;-77
2021/01/15 08:23:26;;;;;;;31.30;29.05;;;0.10;82.40;;;;;;5033251;28;20542;-77
2021/01/15 08:26:02;;;;;;;31.50;29.40;;;0.20;81.60;;;;;;5021236;28;20282;-77
2021/01/15 08:28:29;;;;;;;31.77;29.48;;;0.30;80.60;;;;;;5016521;28;20212;-77
2021/01/15 08:31:01;;;;;;;32.92;30.63;;;0.40;79.50;;;;;;5035294;28;20196;-77
2021/01/15 08:33:27;;;;;;;30.65;28.38;;;0.30;79.50;;;;;;5038073;28;20245;-77
2021/01/15 08:35:58;;;;;;;84.30;34.00;;;0.30;79.40;;;;;;4996458;28;20345;-77
2021/01/15 08:38:33;;;;;;;30.77;28.40;;;0.20;80.60;;;;;;5004102;28;20191;-77
2021/01/15 08:41:00;;;;;;;31.80;29.33;;;0.20;81.20;;;;;;5035944;28;20289;-77
2021/01/15 08:43:30;;;;;;;31.63;29.63;;;0.20;80.80;;;;;;5017999;28;20193;-77
2021/01/15 08:46:00;;;;;;;31.65;29.45;;;0.10;82.60;;;;;;5015876;28;20197;-77
2021/01/15 08:48:31;;;;;;;32.10;29.80;;;0.10;80.90;;;;;;5017286;28;20204;-77
2021/01/15 08:51:07;;;;;;;31.13;28.77;;;0.20;80.70;;;;;;5016065;28;20233;-77
2021/01/15 08:53:43;;;;;;;31.02;28.85;;;0.30;80.10;;;;;;4996335;28;20644;-77
2021/01/15 08:56:13;;;;;;;31.42;29.10;;;0.40;84.00;;;;;;5013076;28;20216;-77
2021/01/15 08:58:47;;;;;;;31.48;29.27;;;0.40;81.40;;;;;;5035313;28;20203;-77
2021/01/15 09:01:27;;;;;;;31.80;29.40;;;0.40;81.00;;;;;;5035635;28;20199;-77
2021/01/15 09:03:57;;;;;;;32.05;29.75;;;0.60;79.20;;;;;;5033915;28;20267;-77
2021/01/15 09:06:24;;;;;;;34.95;32.25;;;0.50;77.80;;;;;;5032837;28;20273;-77
2021/01/15 09:08:54;;;;;;;32.80;30.20;;;0.40;83.70;;;;;;5034832;28;20200;-77
2021/01/15 09:11:29;;;;;;;31.38;29.10;;;0.50;80.60;;;;;;5035377;28;20681;-77
2021/01/15 09:13:56;;;;;;;33.65;31.20;;;0.40;78.00;;;;;;5035483;28;20779;-77
2021/01/15 09:16:25;;;;;;;34.55;31.75;;;0.50;76.70;;;;;;5029999;28;20222;-77
2021/01/15 09:18:53;;;;;;;33.53;31.13;;;0.60;75.90;;;;;;5015346;28;20204;-77
2021/01/15 09:21:20;;;;;;;31.85;29.30;;;0.60;76.50;;;;;;5015352;28;20241;-77
2021/01/15 09:23:46;;;;;;;32.13;29.73;;;0.60;75.90;;;;;;5016457;28;20205;-77
2021/01/15 09:26:13;;;;;;;33.05;30.42;;;0.50;76.00;;;;;;5016307;28;20652;-77
2021/01/15 09:28:39;;;;;;;32.55;29.73;;;0.40;77.00;;;;;;5015163;28;20604;-76
2021/01/15 09:31:06;;;;;;;35.42;32.50;;;0.50;77.30;;;;;;5015056;28;20201;-77
2021/01/15 09:33:45;;;;;;;34.22;31.63;;;0.40;78.00;;;;;;5018341;28;20201;-77
2021/01/15 09:36:14;;;;;;;34.08;31.10;;;0.60;76.40;;;;;;5014545;28;20216;-77
2021/01/15 09:38:40;;;;;;;33.50;31.10;;;0.70;75.40;;;;;;5005132;28;20214;-77
2021/01/15 09:41:07;;;;;;;33.97;31.55;;;0.70;75.90;;;;;;4995442;28;20751;-77
2021/01/15 09:43:33;;;;;;;33.60;31.15;;;0.70;75.30;;;;;;4995290;28;20623;-77
2021/01/15 09:46:00;;;;;;;33.05;30.70;;;0.70;75.20;;;;;;4996417;28;20279;-77
2021/01/15 09:48:26;;;;;;;35.00;32.25;;;0.70;75.30;;;;;;5020062;28;20601;-77
2021/01/15 09:50:53;;;;;;;35.45;32.50;;;0.70;75.80;;;;;;5034179;28;20200;-77
2021/01/15 09:53:19;;;;;;;33.80;31.30;;;0.70;75.30;;;;;;5034628;28;20197;-77
2021/01/15 09:55:46;;;;;;;33.83;31.25;;;0.60;77.10;;;;;;5034115;28;20220;-77
2021/01/15 09:58:12;;;;;;;33.67;31.08;;;0.70;76.30;;;;;;5033050;28;20216;-77
2021/01/15 10:00:39;;;;;;;33.90;31.25;;;0.50;75.80;;;;;;5034039;28;20251;-77
2021/01/15 10:03:06;;;;;;;33.45;30.98;;;0.60;75.90;;;;;;5022125;28;20720;-77
2021/01/15 10:05:32;;;;;;;33.10;30.48;;;0.60;75.40;;;;;;5034080;28;20197;-77
2021/01/15 10:07:59;;;;;;;33.70;31.10;;;0.60;76.30;;;;;;5028292;28;20298;-77
2021/01/15 10:10:27;;;;;;;34.17;31.52;;;0.80;75.50;;;;;;5014251;28;20202;-77
2021/01/15 10:12:54;;;;;;;35.90;33.25;;;1.00;74.40;;;;;;5014332;28;20665;-77
2021/01/15 10:15:20;;;;;;;31.73;29.15;;;1.00;73.80;;;;;;5014448;28;20232;-77
2021/01/15 10:17:47;;;;;;;33.05;30.75;;;1.00;73.40;;;;;;5015339;28;20224;-77
2021/01/15 10:20:13;;;;;;;33.47;30.75;;;0.90;74.00;;;;;;5034661;28;20588;-77
2021/01/15 10:22:42;;;;;;;33.28;30.48;;;0.90;74.20;;;;;;5029225;28;20204;-77
2021/01/15 10:25:10;;;;;;;33.25;30.75;;;1.00;73.90;;;;;;5034078;28;20747;-77
2021/01/15 10:27:37;;;;;;;33.55;30.92;;;0.90;74.20;;;;;;5034020;28;20224;-77
2021/01/15 10:30:04;;;;;;;34.45;31.85;;;0.90;75.40;;;;;;5033730;28;20294;-77
2021/01/15 10:32:31;;;;;;;35.90;32.83;;;1.10;76.30;;;;;;5027358;28;20595;-77
2021/01/15 10:34:57;;;;;;;33.75;31.17;;;1.30;73.50;;;;;;5014414;28;20254;-77
2021/01/15 10:37:23;;;;;;;33.42;30.77;;;1.30;73.30;;;;;;5014009;28;20253;-77
2021/01/15 10:39:50;;;;;;;34.97;32.50;;;1.40;72.40;;;;;;5014089;28;20196;-77
2021/01/15 10:42:17;;;;;;;31.40;29.27;;;1.30;72.80;;;;;;5018008;28;20193;-77
2021/01/15 10:44:43;;;;;;;33.15;30.75;;;1.20;73.20;;;;;;5034259;28;20203;-77
2021/01/15 10:47:13;;;;;;;33.97;31.58;;;1.20;73.40;;;;;;5014085;28;20599;-77
2021/01/15 10:49:40;;;;;;;33.22;30.65;;;1.20;73.10;;;;;;5033895;28;20258;-77
2021/01/15 10:52:07;;;;;;;32.40;30.20;;;1.30;73.10;;;;;;5018700;28;20194;-77
2021/01/15 10:54:33;;;;;;;33.67;31.02;;;1.20;73.80;;;;;;5014059;28;20582;-77
2021/01/15 10:57:00;;;;;;;32.40;30.00;;;1.00;76.90;;;;;;5019146;28;20645;-77
2021/01/15 10:59:27;;;;;;;32.22;30.05;;;1.20;76.20;;;;;;5014307;28;20202;-77
2021/01/15 11:01:53;;;;;;;34.10;31.45;;;1.30;74.00;;;;;;5015863;28;20662;-77
2021/01/15 11:04:21;;;;;;;34.00;31.23;;;1.40;73.20;;;;;;5026254;28;20192;-77
2021/01/15 11:06:52;;;;;;;32.83;30.42;;;1.40;74.70;;;;;;5016169;28;20327;-77
2021/01/15 11:09:19;;;;;;;34.70;32.15;;;1.40;75.50;;;;;;5014266;28;20194;-78
2021/01/15 11:11:46;;;;;;;35.00;32.40;;;1.50;73.70;;;;;;5018742;28;20629;-77
2021/01/15 11:14:12;;;;;;;33.90;31.17;;;1.50;74.00;;;;;;5033258;28;20204;-77
2021/01/15 11:16:40;;;;;;;33.92;31.30;;;1.70;72.40;;;;;;5023037;28;20223;-77
2021/01/15 11:19:06;;;;;;;33.35;30.92;;;1.70;71.80;;;;;;5013266;28;20272;-77
2021/01/15 11:21:33;;;;;;;34.58;31.98;;;1.60;71.80;;;;;;5013489;28;20198;-77
2021/01/15 11:23:59;;;;;;;31.02;28.92;;;1.60;72.50;;;;;;5013449;28;20205;-77
2021/01/15 11:26:27;;;;;;;34.53;31.67;;;1.60;71.70;;;;;;5019665;28;20205;-77
2021/01/15 11:28:55;;;;;;;33.05;30.65;;;1.60;71.80;;;;;;5028840;28;20190;-78
2021/01/15 11:31:22;;;;;;;34.30;31.80;;;1.70;71.90;;;;;;5013388;28;20668;-77
2021/01/15 11:33:50;;;;;;;32.25;30.00;;;1.60;72.80;;;;;;5013283;28;20205;-78
2021/01/15 11:36:17;;;;;;;33.47;30.83;;;1.90;71.60;;;;;;5017721;28;20213;-77
2021/01/15 11:38:44;;;;;;;32.83;30.50;;;1.80;70.90;;;;;;5032725;28;20670;-77
2021/01/15 11:41:13;;;;;;;33.30;31.02;;;1.90;70.90;;;;;;5033052;28;20208;-78
2021/01/15 11:43:40;;;;;;;34.80;32.20;;;2.00;71.20;;;;;;5032889;28;20689;-78
2021/01/15 11:46:07;;;;;;;33.10;30.80;;;2.00;71.10;;;;;;5028951;28;20668;-78
2021/01/15 11:48:34;;;;;;;35.20;31.95;;;2.00;70.70;;;;;;5017271;28;20276;-77
2021/01/15 11:51:02;;;;;;;33.22;30.83;;;2.10;70.50;;;;;;5019503;28;20198;-78
2021/01/15 11:53:33;;;;;;;33.88;31.48;;;2.10;70.00;;;;;;5015027;28;20202;-78
2021/01/15 11:56:01;;;;;;;35.13;32.63;;;2.30;70.30;;;;;;5032574;28;20219;-78
2021/01/15 11:58:27;;;;;;;35.75;32.85;;;2.40;70.40;;;;;;5032649;28;20251;-78
2021/01/15 12:00:55;;;;;;;35.45;32.67;;;2.30;71.00;;;;;;5036441;28;20672;-77
2021/01/15 12:03:21;;;;;;;34.72;31.83;;;2.40;71.90;;;;;;5046505;28;20197;-78
2021/01/15 12:05:49;;;;;;;35.15;32.35;;;2.50;70.60;;;;;;5043385;28;20220;-78
2021/01/15 12:08:17;;;;;;;32.72;30.20;;;2.60;70.90;;;;;;5026385;28;20222;-78
2021/01/15 12:10:43;;;;;;;33.70;31.20;;;2.50;69.10;;;;;;5019785;28;20205;-78
2021/01/15 12:13:10;;;;;;;35.05;32.05;;;2.50;69.50;;;;;;5019844;28;20202;-78
2021/01/15 12:15:36;;;;;;;35.25;32.58;;;2.50;69.00;;;;;;5021510;28;20304;-78
2021/01/15 12:18:03;;;;;;;33.03;30.63;;;2.40;70.00;;;;;;5019114;28;20218;-78
2021/01/15 12:20:35;;;;;;;35.53;32.83;;;2.40;69.90;;;;;;5017257;28;20194;-78
2021/01/15 12:23:02;;;;;;;32.55;30.33;;;2.50;69.80;;;;;;5017139;28;20205;-78
2021/01/15 12:25:29;;;;;;;33.70;31.23;;;2.50;68.40;;;;;;5025890;28;20197;-78
2021/01/15 12:27:55;;;;;;;33.75;31.30;;;2.50;69.20;;;;;;5036439;28;20582;-78
2021/01/15 12:30:23;;;;;;;33.17;30.58;;;2.50;69.20;;;;;;5033651;28;20185;-78
2021/01/15 12:32:50;;;;;;;32.40;30.10;;;2.70;68.00;;;;;;5018204;28;20194;-78
2021/01/15 12:35:17;;;;;;;32.60;30.30;;;2.60;67.50;;;;;;5018278;28;20218;-77
2021/01/15 12:37:43;;;;;;;33.88;31.33;;;2.50;68.20;;;;;;5018488;28;20222;-77
2021/01/15 12:40:11;;;;;;;32.33;30.13;;;2.60;68.70;;;;;;5019233;28;20194;-79
2021/01/15 12:42:39;;;;;;;33.28;30.67;;;2.70;67.40;;;;;;5001374;28;20198;-78